createdAt,value
2019-01-27T00:00:56.978Z,85.25
2019-01-27T00:01:56.987Z,85.04
2019-01-27T00:02:57.021Z,85.21
2019-01-27T00:03:56.984Z,85.31
2019-01-27T00:04:56.947Z,84.69
2019-01-27T00:05:56.928Z,84.83
2019-01-27T00:06:56.909Z,84.73
2019-01-27T00:07:56.908Z,84.42
2019-01-27T00:08:56.903Z,85.25
2019-01-27T00:09:56.901Z,85.21
2019-01-27T00:10:56.874Z,84.69
2019-01-27T00:11:56.900Z,84.83
2019-01-27T00:12:56.844Z,84.90
2019-01-27T00:13:56.832Z,84.63
2019-01-27T00:14:56.854Z,84.83
2019-01-27T00:15:56.812Z,84.94
2019-01-27T00:16:56.815Z,84.28
2019-01-27T00:17:56.798Z,83.86
2019-01-27T00:18:56.820Z,83.80
2019-01-27T00:19:56.788Z,84.00
2019-01-27T00:20:56.756Z,84.83
2019-01-27T00:21:56.751Z,84.38
2019-01-27T00:22:56.738Z,83.69
2019-01-27T00:23:56.743Z,83.80
2019-01-27T00:24:56.744Z,83.90
2019-01-27T00:25:56.706Z,83.69
2019-01-27T00:26:56.691Z,84.63
2019-01-27T00:27:56.713Z,84.07
2019-01-27T00:28:56.682Z,83.45
2019-01-27T00:29:56.685Z,83.65
2019-01-27T00:30:56.662Z,84.21
2019-01-27T00:31:56.639Z,84.17
2019-01-27T00:32:56.630Z,84.31
2019-01-27T00:33:56.619Z,84.59
2019-01-27T00:34:56.607Z,84.83
2019-01-27T00:35:56.615Z,84.83
2019-01-27T00:36:56.585Z,84.59
2019-01-27T00:37:56.577Z,84.90
2019-01-27T00:38:56.565Z,85.00
2019-01-27T00:39:56.588Z,84.00
2019-01-27T00:40:56.553Z,83.76
2019-01-27T00:41:56.531Z,83.65
2019-01-27T00:42:56.528Z,84.11
2019-01-27T00:43:56.510Z,83.86
2019-01-27T00:44:56.495Z,83.80
2019-01-27T00:45:56.522Z,84.52
2019-01-27T00:46:56.485Z,84.31
2019-01-27T00:47:56.474Z,84.17
2019-01-27T00:48:56.493Z,84.73
2019-01-27T00:49:56.463Z,84.63
2019-01-27T00:50:56.456Z,84.63
2019-01-27T00:51:56.434Z,84.83
2019-01-27T00:52:56.413Z,84.83
2019-01-27T00:53:56.396Z,84.17
2019-01-27T00:54:56.398Z,84.21
2019-01-27T00:55:56.409Z,84.31
2019-01-27T00:56:56.363Z,84.52
2019-01-27T00:57:56.354Z,84.31
2019-01-27T00:58:56.346Z,84.00
2019-01-27T00:59:56.333Z,83.80
2019-01-27T01:00:56.359Z,84.73
2019-01-27T01:01:56.319Z,84.83
2019-01-27T01:02:56.306Z,84.73
2019-01-27T01:03:56.320Z,84.63
2019-01-27T01:04:56.277Z,84.83
2019-01-27T01:05:56.273Z,84.21
2019-01-27T01:06:56.286Z,84.31
2019-01-27T01:07:56.247Z,83.76
2019-01-27T01:08:56.263Z,84.07
2019-01-27T01:09:56.227Z,83.69
2019-01-27T01:10:56.245Z,83.65
2019-01-27T01:11:56.223Z,83.65
2019-01-27T01:12:56.207Z,84.17
2019-01-27T01:13:56.179Z,84.17
2019-01-27T01:14:56.176Z,83.45
2019-01-27T01:15:56.161Z,83.65
2019-01-27T01:16:56.207Z,83.65
2019-01-27T01:17:56.142Z,83.76
2019-01-27T01:18:56.151Z,83.65
2019-01-27T01:19:56.136Z,84.38
2019-01-27T01:20:56.108Z,84.28
2019-01-27T01:21:56.091Z,84.07
2019-01-27T01:22:56.080Z,84.07
2019-01-27T01:23:56.086Z,83.97
2019-01-27T01:24:56.088Z,83.65
2019-01-27T01:25:56.046Z,83.86
2019-01-27T01:26:56.041Z,83.97
2019-01-27T01:27:56.039Z,83.65
2019-01-27T01:28:56.024Z,83.86
2019-01-27T01:29:56.043Z,83.76
2019-01-27T01:30:56.003Z,83.65
2019-01-27T01:31:55.990Z,83.69
2019-01-27T01:32:55.988Z,84.00
2019-01-27T01:33:55.968Z,83.97
2019-01-27T01:34:55.981Z,84.28
2019-01-27T01:35:55.951Z,83.65
2019-01-27T01:36:55.935Z,82.82
2019-01-27T01:37:55.919Z,83.34
2019-01-27T01:38:55.928Z,83.76
2019-01-27T01:39:55.920Z,83.76
2019-01-27T01:40:55.902Z,83.80
2019-01-27T01:41:55.875Z,84.17
2019-01-27T01:42:55.870Z,84.17
2019-01-27T01:43:55.864Z,83.90
2019-01-27T01:44:55.881Z,83.86
2019-01-27T01:45:55.851Z,83.59
2019-01-27T01:46:56.625Z,83.48
2019-01-27T01:47:55.823Z,83.90
2019-01-27T01:48:55.805Z,83.45
2019-01-27T01:49:55.791Z,83.86
2019-01-27T01:50:55.821Z,83.38
2019-01-27T01:51:55.766Z,83.69
2019-01-27T01:52:55.755Z,83.90
2019-01-27T01:53:55.744Z,83.86
2019-01-27T01:54:55.740Z,83.65
2019-01-27T01:55:55.749Z,84.00
2019-01-27T01:56:55.738Z,84.00
2019-01-27T01:57:55.700Z,84.00
2019-01-27T01:58:55.694Z,83.69
2019-01-27T01:59:55.677Z,84.00
2019-01-27T02:00:55.672Z,84.21
2019-01-27T02:01:55.677Z,83.48
2019-01-27T02:02:55.648Z,83.69
2019-01-27T02:03:55.639Z,84.21
2019-01-27T02:04:55.635Z,83.80
2019-01-27T02:05:55.619Z,84.00
2019-01-27T02:06:55.630Z,84.63
2019-01-27T02:07:55.600Z,84.31
2019-01-27T02:08:55.582Z,84.11
2019-01-27T02:09:55.568Z,83.90
2019-01-27T02:10:55.561Z,84.11
2019-01-27T02:11:55.548Z,84.31
2019-01-27T02:12:55.560Z,84.83
2019-01-27T02:13:55.533Z,83.80
2019-01-27T02:14:55.522Z,83.59
2019-01-27T02:15:55.503Z,83.90
2019-01-27T02:16:55.507Z,84.11
2019-01-27T02:17:55.521Z,84.48
2019-01-27T02:18:55.479Z,84.28
2019-01-27T02:19:55.500Z,83.76
2019-01-27T02:20:55.451Z,83.48
2019-01-27T02:21:55.445Z,83.55
2019-01-27T02:22:55.478Z,83.65
2019-01-27T02:23:55.444Z,83.55
2019-01-27T02:24:55.407Z,83.69
2019-01-27T02:25:55.407Z,83.69
2019-01-27T02:26:55.393Z,83.38
2019-01-27T02:27:55.376Z,82.86
2019-01-27T02:28:55.434Z,83.69
2019-01-27T02:29:55.361Z,83.69
2019-01-27T02:30:55.340Z,83.65
2019-01-27T02:31:55.336Z,83.90
2019-01-27T02:32:55.325Z,83.55
2019-01-27T02:33:55.374Z,83.45
2019-01-27T02:34:55.334Z,83.65
2019-01-27T02:35:55.289Z,83.76
2019-01-27T02:36:55.288Z,83.59
2019-01-27T02:37:55.303Z,83.90
2019-01-27T02:38:55.286Z,83.90
2019-01-27T02:39:55.248Z,83.80
2019-01-27T02:40:55.299Z,83.80
2019-01-27T02:41:55.224Z,83.38
2019-01-27T02:42:55.218Z,83.59
2019-01-27T02:43:55.222Z,83.80
2019-01-27T02:44:55.211Z,83.80
2019-01-27T02:45:55.178Z,83.76
2019-01-27T02:46:55.171Z,83.45
2019-01-27T02:47:55.162Z,83.24
2019-01-27T02:48:55.146Z,83.03
2019-01-27T02:49:55.185Z,83.14
2019-01-27T02:50:55.125Z,83.65
2019-01-27T02:51:55.113Z,83.55
2019-01-27T02:52:55.112Z,83.14
2019-01-27T02:53:55.096Z,83.55
2019-01-27T02:54:55.114Z,83.45
2019-01-27T02:55:55.071Z,82.93
2019-01-27T02:56:55.061Z,82.93
2019-01-27T02:57:55.052Z,83.34
2019-01-27T02:58:55.037Z,83.14
2019-01-27T02:59:55.028Z,83.65
2019-01-27T03:00:55.042Z,83.55
2019-01-27T03:01:55.023Z,83.65
2019-01-27T03:02:54.993Z,83.76
2019-01-27T03:03:54.990Z,83.03
2019-01-27T03:04:55.004Z,83.34
2019-01-27T03:05:54.988Z,83.03
2019-01-27T03:06:54.956Z,83.34
2019-01-27T03:07:54.947Z,83.55
2019-01-27T03:08:54.936Z,83.34
2019-01-27T03:09:54.930Z,83.24
2019-01-27T03:10:54.922Z,83.34
2019-01-27T03:11:54.902Z,82.82
2019-01-27T03:12:54.898Z,83.14
2019-01-27T03:13:54.888Z,83.69
2019-01-27T03:14:54.877Z,83.80
2019-01-27T03:15:54.927Z,83.55
2019-01-27T03:16:54.860Z,83.65
2019-01-27T03:17:54.833Z,83.55
2019-01-27T03:18:54.825Z,83.45
2019-01-27T03:19:54.807Z,83.14
2019-01-27T03:20:54.821Z,82.93
2019-01-27T03:21:54.822Z,83.45
2019-01-27T03:22:54.811Z,83.34
2019-01-27T03:23:54.770Z,83.03
2019-01-27T03:24:54.757Z,83.14
2019-01-27T03:25:54.746Z,83.34
2019-01-27T03:26:54.769Z,83.24
2019-01-27T03:27:54.728Z,83.55
2019-01-27T03:28:54.716Z,83.03
2019-01-27T03:29:54.703Z,83.14
2019-01-27T03:30:54.690Z,83.24
2019-01-27T03:31:54.719Z,83.34
2019-01-27T03:32:54.673Z,83.55
2019-01-27T03:33:54.662Z,83.45
2019-01-27T03:34:54.672Z,82.82
2019-01-27T03:35:54.639Z,82.51
2019-01-27T03:36:54.646Z,82.82
2019-01-27T03:37:54.631Z,82.58
2019-01-27T03:38:54.604Z,82.72
2019-01-27T03:39:54.593Z,82.82
2019-01-27T03:40:54.586Z,82.72
2019-01-27T03:41:54.588Z,82.41
2019-01-27T03:42:54.598Z,82.51
2019-01-27T03:43:54.562Z,83.14
2019-01-27T03:44:54.543Z,83.34
2019-01-27T03:45:54.526Z,83.34
2019-01-27T03:46:54.527Z,83.45
2019-01-27T03:47:54.565Z,83.14
2019-01-27T03:48:54.500Z,83.45
2019-01-27T03:49:54.489Z,82.51
2019-01-27T03:50:54.475Z,83.14
2019-01-27T03:51:54.471Z,83.24
2019-01-27T03:52:54.449Z,83.14
2019-01-27T03:53:54.470Z,83.14
2019-01-27T03:54:54.434Z,83.14
2019-01-27T03:55:54.469Z,83.14
2019-01-27T03:56:54.411Z,82.82
2019-01-27T03:57:54.399Z,83.55
2019-01-27T03:58:54.430Z,83.55
2019-01-27T03:59:54.386Z,83.76
2019-01-27T04:00:54.367Z,83.45
2019-01-27T04:01:54.354Z,83.45
2019-01-27T04:02:54.342Z,83.76
2019-01-27T04:03:54.370Z,83.34
2019-01-27T04:04:54.323Z,83.86
2019-01-27T04:05:54.330Z,83.76
2019-01-27T04:06:54.302Z,83.34
2019-01-27T04:07:54.290Z,83.14
2019-01-27T04:08:54.284Z,83.45
2019-01-27T04:09:54.268Z,83.03
2019-01-27T04:10:54.289Z,82.72
2019-01-27T04:11:54.257Z,83.03
2019-01-27T04:12:54.246Z,82.51
2019-01-27T04:13:54.226Z,83.34
2019-01-27T04:14:54.210Z,82.37
2019-01-27T04:15:54.234Z,82.82
2019-01-27T04:16:54.192Z,82.68
2019-01-27T04:17:54.182Z,82.89
2019-01-27T04:18:54.176Z,83.10
2019-01-27T04:19:54.163Z,82.37
2019-01-27T04:20:54.194Z,82.58
2019-01-27T04:21:54.141Z,82.72
2019-01-27T04:22:54.122Z,82.48
2019-01-27T04:23:54.116Z,82.27
2019-01-27T04:24:54.104Z,82.48
2019-01-27T04:25:54.129Z,83.20
2019-01-27T04:26:54.118Z,83.10
2019-01-27T04:27:54.076Z,82.48
2019-01-27T04:28:54.059Z,82.89
2019-01-27T04:29:54.097Z,82.48
2019-01-27T04:30:54.051Z,82.72
2019-01-27T04:31:54.049Z,82.79
2019-01-27T04:32:54.027Z,83.00
2019-01-27T04:33:54.010Z,83.20
2019-01-27T04:34:54.003Z,83.10
2019-01-27T04:35:53.981Z,82.48
2019-01-27T04:36:54.005Z,82.27
2019-01-27T04:37:53.979Z,81.96
2019-01-27T04:38:53.967Z,82.58
2019-01-27T04:39:53.939Z,82.37
2019-01-27T04:40:53.941Z,83.10
2019-01-27T04:41:53.961Z,81.96
2019-01-27T04:42:53.911Z,82.27
2019-01-27T04:43:53.895Z,82.48
2019-01-27T04:44:53.889Z,82.27
2019-01-27T04:45:53.886Z,81.75
2019-01-27T04:46:53.862Z,82.48
2019-01-27T04:47:53.869Z,83.20
2019-01-27T04:48:53.849Z,82.79
2019-01-27T04:49:53.856Z,83.00
2019-01-27T04:50:53.824Z,83.20
2019-01-27T04:51:53.815Z,83.14
2019-01-27T04:52:53.823Z,82.68
2019-01-27T04:53:53.795Z,83.24
2019-01-27T04:54:53.782Z,82.37
2019-01-27T04:55:53.764Z,82.48
2019-01-27T04:56:53.753Z,82.79
2019-01-27T04:57:53.778Z,83.20
2019-01-27T04:58:53.732Z,82.48
2019-01-27T04:59:53.752Z,82.41
2019-01-27T05:00:53.738Z,82.58
2019-01-27T05:01:53.702Z,82.37
2019-01-27T05:02:53.737Z,82.48
2019-01-27T05:03:53.701Z,82.27
2019-01-27T05:04:53.670Z,82.27
2019-01-27T05:05:53.658Z,82.06
2019-01-27T05:06:53.649Z,82.79
2019-01-27T05:07:53.655Z,82.58
2019-01-27T05:08:53.653Z,83.10
2019-01-27T05:09:53.637Z,83.31
2019-01-27T05:10:53.605Z,82.79
2019-01-27T05:11:53.598Z,81.85
2019-01-27T05:12:53.580Z,82.06
2019-01-27T05:13:53.632Z,82.06
2019-01-27T05:14:53.572Z,82.48
2019-01-27T05:15:53.547Z,82.06
2019-01-27T05:16:53.541Z,81.75
2019-01-27T05:17:53.528Z,81.96
2019-01-27T05:18:53.513Z,82.58
2019-01-27T05:19:53.540Z,82.58
2019-01-27T05:20:53.522Z,81.75
2019-01-27T05:21:53.486Z,81.85
2019-01-27T05:22:53.473Z,81.85
2019-01-27T05:23:53.488Z,81.65
2019-01-27T05:24:53.481Z,81.75
2019-01-27T05:25:53.454Z,82.06
2019-01-27T05:26:53.446Z,82.27
2019-01-27T05:27:53.423Z,81.75
2019-01-27T05:28:53.418Z,81.85
2019-01-27T05:29:53.433Z,82.06
2019-01-27T05:30:53.390Z,81.85
2019-01-27T05:31:53.380Z,81.96
2019-01-27T05:32:53.379Z,81.75
2019-01-27T05:33:53.353Z,81.96
2019-01-27T05:34:53.341Z,81.85
2019-01-27T05:35:53.358Z,82.17
2019-01-27T05:36:53.328Z,81.96
2019-01-27T05:37:53.317Z,82.48
2019-01-27T05:38:53.306Z,81.75
2019-01-27T05:39:53.294Z,82.17
2019-01-27T05:40:53.308Z,81.65
2019-01-27T05:41:53.275Z,81.85
2019-01-27T05:42:53.259Z,82.37
2019-01-27T05:43:53.249Z,82.17
2019-01-27T05:44:53.240Z,81.85
2019-01-27T05:45:53.261Z,81.75
2019-01-27T05:46:53.243Z,81.85
2019-01-27T05:47:53.205Z,82.27
2019-01-27T05:48:53.194Z,81.96
2019-01-27T05:49:53.180Z,82.68
2019-01-27T05:50:53.171Z,82.79
2019-01-27T05:51:53.196Z,83.10
2019-01-27T05:52:53.148Z,81.75
2019-01-27T05:53:53.170Z,82.48
2019-01-27T05:54:53.134Z,81.96
2019-01-27T05:55:53.161Z,82.44
2019-01-27T05:56:56.640Z,81.92
2019-01-27T05:57:53.103Z,82.75
2019-01-27T05:58:53.101Z,82.13
2019-01-27T05:59:53.111Z,81.96
2019-01-27T06:00:53.061Z,82.06
2019-01-27T06:01:53.068Z,81.54
2019-01-27T06:02:53.036Z,82.23
2019-01-27T06:03:53.034Z,82.03
2019-01-27T06:04:53.040Z,82.13
2019-01-27T06:05:53.004Z,82.06
2019-01-27T06:06:53.009Z,81.65
2019-01-27T06:07:52.990Z,81.71
2019-01-27T06:08:52.985Z,81.75
2019-01-27T06:09:53.003Z,81.40
2019-01-27T06:10:52.964Z,81.09
2019-01-27T06:11:52.945Z,81.34
2019-01-27T06:12:52.936Z,81.20
2019-01-27T06:13:52.921Z,80.99
2019-01-27T06:14:52.947Z,81.44
2019-01-27T06:15:52.918Z,81.61
2019-01-27T06:16:52.898Z,81.85
2019-01-27T06:17:52.891Z,81.65
2019-01-27T06:18:52.865Z,81.85
2019-01-27T06:19:52.866Z,81.20
2019-01-27T06:20:52.873Z,81.75
2019-01-27T06:21:52.834Z,81.92
2019-01-27T06:22:52.823Z,81.75
2019-01-27T06:23:52.825Z,82.06
2019-01-27T06:24:52.804Z,82.13
2019-01-27T06:25:52.848Z,81.85
2019-01-27T06:26:52.785Z,81.40
2019-01-27T06:27:52.768Z,81.44
2019-01-27T06:28:52.763Z,82.06
2019-01-27T06:29:52.751Z,81.75
2019-01-27T06:30:52.751Z,82.13
2019-01-27T06:31:52.742Z,81.96
2019-01-27T06:32:52.741Z,81.40
2019-01-27T06:33:52.704Z,81.44
2019-01-27T06:34:52.696Z,81.40
2019-01-27T06:35:52.690Z,81.20
2019-01-27T06:36:53.487Z,81.40
2019-01-27T06:37:52.663Z,81.54
2019-01-27T06:38:52.654Z,81.20
2019-01-27T06:39:52.636Z,81.51
2019-01-27T06:40:52.632Z,81.23
2019-01-27T06:41:52.647Z,81.30
2019-01-27T06:42:52.607Z,81.34
2019-01-27T06:43:52.597Z,81.82
2019-01-27T06:44:52.601Z,81.34
2019-01-27T06:45:52.572Z,81.54
2019-01-27T06:46:52.560Z,81.34
2019-01-27T06:47:52.554Z,81.44
2019-01-27T06:48:52.549Z,81.30
2019-01-27T06:49:52.547Z,81.34
2019-01-27T06:50:52.515Z,81.20
2019-01-27T06:51:52.512Z,81.44
2019-01-27T06:52:52.498Z,81.75
2019-01-27T06:53:52.489Z,81.23
2019-01-27T06:54:52.491Z,81.23
2019-01-27T06:55:52.462Z,81.13
2019-01-27T06:56:52.450Z,81.44
2019-01-27T06:57:52.462Z,81.20
2019-01-27T06:58:52.429Z,81.23
2019-01-27T06:59:52.442Z,81.20
2019-01-27T07:00:52.410Z,81.23
2019-01-27T07:01:52.404Z,81.20
2019-01-27T07:02:52.386Z,81.40
2019-01-27T07:03:53.287Z,81.54
2019-01-27T07:04:52.397Z,81.30
2019-01-27T07:05:52.359Z,81.85
2019-01-27T07:06:52.348Z,81.75
2019-01-27T07:07:52.348Z,81.75
2019-01-27T07:08:52.337Z,81.30
2019-01-27T07:09:52.315Z,81.40
2019-01-27T07:10:52.323Z,81.34
2019-01-27T07:11:52.313Z,81.44
2019-01-27T07:12:52.287Z,81.61
2019-01-27T07:13:52.287Z,81.82
2019-01-27T07:14:52.266Z,81.09
2019-01-27T07:15:52.267Z,80.78
2019-01-27T07:16:52.238Z,81.09
2019-01-27T07:17:52.229Z,81.09
2019-01-27T07:18:52.213Z,81.51
2019-01-27T07:19:52.203Z,81.71
2019-01-27T07:20:52.210Z,81.61
2019-01-27T07:21:52.189Z,80.78
2019-01-27T07:22:52.180Z,80.68
2019-01-27T07:23:52.165Z,80.78
2019-01-27T07:24:52.153Z,80.57
2019-01-27T07:25:52.177Z,80.68
2019-01-27T07:26:52.130Z,80.78
2019-01-27T07:27:52.113Z,80.47
2019-01-27T07:28:52.103Z,80.57
2019-01-27T07:29:52.095Z,80.47
2019-01-27T07:30:52.095Z,80.78
2019-01-27T07:31:52.105Z,81.09
2019-01-27T07:32:52.063Z,81.09
2019-01-27T07:33:52.052Z,81.20
2019-01-27T07:34:52.047Z,81.82
2019-01-27T07:35:52.032Z,81.40
2019-01-27T07:36:52.046Z,81.40
2019-01-27T07:37:52.022Z,81.20
2019-01-27T07:38:51.998Z,81.47
2019-01-27T07:39:51.983Z,81.47
2019-01-27T07:40:52.054Z,81.30
2019-01-27T07:41:51.981Z,80.88
2019-01-27T07:42:51.962Z,81.71
2019-01-27T07:43:51.956Z,81.61
2019-01-27T07:44:51.942Z,81.78
2019-01-27T07:45:51.946Z,81.71
2019-01-27T07:46:51.911Z,82.50
2019-01-27T07:47:51.901Z,82.13
2019-01-27T07:48:51.886Z,81.82
2019-01-27T07:49:51.888Z,82.13
2019-01-27T07:50:51.891Z,82.34
2019-01-27T07:51:51.859Z,81.88
2019-01-27T07:52:51.850Z,81.99
2019-01-27T07:53:51.838Z,81.88
2019-01-27T07:54:51.849Z,81.88
2019-01-27T07:55:51.850Z,81.68
2019-01-27T07:56:51.807Z,81.78
2019-01-27T07:57:51.804Z,81.88
2019-01-27T07:58:51.785Z,81.78
2019-01-27T07:59:51.780Z,82.09
2019-01-27T08:00:51.796Z,81.05
2019-01-27T08:01:51.747Z,81.37
2019-01-27T08:02:51.739Z,81.37
2019-01-27T08:03:51.734Z,81.37
2019-01-27T08:04:51.723Z,81.37
2019-01-27T08:05:51.819Z,81.37
2019-01-27T08:06:51.714Z,81.64
2019-01-27T08:07:51.688Z,81.64
2019-01-27T08:08:51.678Z,81.33
2019-01-27T08:09:51.668Z,81.78
2019-01-27T08:10:51.653Z,81.23
2019-01-27T08:11:51.659Z,81.37
2019-01-27T08:12:51.633Z,81.78
2019-01-27T08:13:51.620Z,81.37
2019-01-27T08:14:51.604Z,81.33
2019-01-27T08:15:51.606Z,81.74
2019-01-27T08:16:51.597Z,81.54
2019-01-27T08:17:51.576Z,81.02
2019-01-27T08:18:51.567Z,80.33
2019-01-27T08:19:51.547Z,80.54
2019-01-27T08:20:51.539Z,80.64
2019-01-27T08:21:51.560Z,80.60
2019-01-27T08:22:51.516Z,80.29
2019-01-27T08:23:51.507Z,80.29
2019-01-27T08:24:51.504Z,80.91
2019-01-27T08:25:51.491Z,80.81
2019-01-27T08:26:51.498Z,81.02
2019-01-27T08:27:51.469Z,80.91
2019-01-27T08:28:51.458Z,80.91
2019-01-27T08:29:51.460Z,80.71
2019-01-27T08:30:51.491Z,80.71
2019-01-27T08:31:51.446Z,81.12
2019-01-27T08:32:51.409Z,80.91
2019-01-27T08:33:51.409Z,81.02
2019-01-27T08:34:51.402Z,80.91
2019-01-27T08:35:51.390Z,80.91
2019-01-27T08:36:51.367Z,80.71
2019-01-27T08:37:51.370Z,80.50
2019-01-27T08:38:51.353Z,80.40
2019-01-27T08:39:51.367Z,80.50
2019-01-27T08:40:51.323Z,80.19
2019-01-27T08:41:51.318Z,80.60
2019-01-27T08:42:51.323Z,80.40
2019-01-27T08:43:51.296Z,80.29
2019-01-27T08:44:51.277Z,80.19
2019-01-27T08:45:51.272Z,80.29
2019-01-27T08:46:51.266Z,80.40
2019-01-27T08:47:51.268Z,80.36
2019-01-27T08:48:51.273Z,80.91
2019-01-27T08:49:51.226Z,80.77
2019-01-27T08:50:51.227Z,81.09
2019-01-27T08:51:51.225Z,80.98
2019-01-27T08:52:51.232Z,81.60
2019-01-27T08:53:51.191Z,81.70
2019-01-27T08:54:51.217Z,81.49
2019-01-27T08:55:51.162Z,80.88
2019-01-27T08:56:51.158Z,81.09
2019-01-27T08:57:51.169Z,80.57
2019-01-27T08:58:51.165Z,80.98
2019-01-27T08:59:51.129Z,80.98
2019-01-27T09:00:51.112Z,81.09
2019-01-27T09:01:51.105Z,80.88
2019-01-27T09:02:51.102Z,81.60
2019-01-27T09:03:51.099Z,80.77
2019-01-27T09:04:51.068Z,81.19
2019-01-27T09:05:51.060Z,81.29
2019-01-27T09:06:51.047Z,81.60
2019-01-27T09:07:51.037Z,81.49
2019-01-27T09:08:51.054Z,81.29
2019-01-27T09:09:51.006Z,81.19
2019-01-27T09:10:51.000Z,81.29
2019-01-27T09:11:50.985Z,81.19
2019-01-27T09:12:50.984Z,80.94
2019-01-27T09:13:50.968Z,80.84
2019-01-27T09:14:50.983Z,81.60
2019-01-27T09:15:50.982Z,81.15
2019-01-27T09:16:50.930Z,81.25
2019-01-27T09:17:50.940Z,81.35
2019-01-27T09:18:50.912Z,80.94
2019-01-27T09:19:50.929Z,80.22
2019-01-27T09:20:50.904Z,81.15
2019-01-27T09:21:50.883Z,80.84
2019-01-27T09:22:50.889Z,80.22
2019-01-27T09:23:50.855Z,80.32
2019-01-27T09:24:50.851Z,80.63
2019-01-27T09:25:50.853Z,80.67
2019-01-27T09:26:50.822Z,80.26
2019-01-27T09:27:50.839Z,80.36
2019-01-27T09:28:50.800Z,80.57
2019-01-27T09:29:50.823Z,81.09
2019-01-27T09:30:50.780Z,81.70
2019-01-27T09:31:50.776Z,81.29
2019-01-27T09:32:50.799Z,81.19
2019-01-27T09:33:50.751Z,81.81
2019-01-27T09:34:50.736Z,81.64
2019-01-27T09:35:50.730Z,81.64
2019-01-27T09:36:50.728Z,82.46
2019-01-27T09:37:50.758Z,83.15
2019-01-27T09:38:50.698Z,82.98
2019-01-27T09:39:50.690Z,82.98
2019-01-27T09:40:50.689Z,83.15
2019-01-27T09:41:50.669Z,83.05
2019-01-27T09:42:50.668Z,82.78
2019-01-27T09:43:50.658Z,83.61
2019-01-27T09:44:50.632Z,83.91
2019-01-27T09:46:05.088Z,84.01
2019-01-27T09:46:51.611Z,83.91
2019-01-27T09:47:50.616Z,85.16
2019-01-27T09:48:50.596Z,85.16
2019-01-27T09:49:50.640Z,84.43
2019-01-27T09:50:50.569Z,84.74
2019-01-27T09:51:50.560Z,84.43
2019-01-27T09:52:50.577Z,84.22
2019-01-27T09:53:50.564Z,85.11
2019-01-27T09:54:50.525Z,84.95
2019-01-27T09:55:50.511Z,84.39
2019-01-27T09:56:50.509Z,84.39
2019-01-27T09:57:50.564Z,84.50
2019-01-27T09:58:50.500Z,83.77
2019-01-27T09:59:50.465Z,84.70
2019-01-27T10:00:50.468Z,83.98
2019-01-27T10:01:50.449Z,83.77
2019-01-27T10:02:51.758Z,83.67
2019-01-27T10:03:50.486Z,83.77
2019-01-27T10:04:50.415Z,83.77
2019-01-27T10:05:50.404Z,83.36
2019-01-27T10:06:50.394Z,83.15
2019-01-27T10:07:50.382Z,83.42
2019-01-27T10:08:50.434Z,83.53
2019-01-27T10:09:50.383Z,83.32
2019-01-27T10:10:50.345Z,82.80
2019-01-27T10:11:50.339Z,82.90
2019-01-27T10:12:50.350Z,82.80
2019-01-27T10:13:50.316Z,82.08
2019-01-27T10:14:50.328Z,81.56
2019-01-27T10:15:50.313Z,81.56
2019-01-27T10:16:50.289Z,81.77
2019-01-27T10:17:50.282Z,81.25
2019-01-27T10:18:50.267Z,81.73
2019-01-27T10:19:50.296Z,81.77
2019-01-27T10:20:50.248Z,81.11
2019-01-27T10:21:50.238Z,81.11
2019-01-27T10:22:50.223Z,80.90
2019-01-27T10:23:50.216Z,81.52
2019-01-27T10:24:50.199Z,80.29
2019-01-27T10:25:50.204Z,80.39
2019-01-27T10:26:50.180Z,80.29
2019-01-27T10:27:50.168Z,81.32
2019-01-27T10:28:50.188Z,80.70
2019-01-27T10:29:50.146Z,80.60
2019-01-27T10:30:50.137Z,79.97
2019-01-27T10:31:50.131Z,80.04
2019-01-27T10:32:50.134Z,79.94
2019-01-27T10:33:50.138Z,79.42
2019-01-27T10:34:50.103Z,79.63
2019-01-27T10:35:50.082Z,79.42
2019-01-27T10:36:50.066Z,79.73
2019-01-27T10:37:50.057Z,78.91
2019-01-27T10:38:50.089Z,79.52
2019-01-27T10:39:50.034Z,78.91
2019-01-27T10:40:50.039Z,79.08
2019-01-27T10:41:50.013Z,79.73
2019-01-27T10:42:49.997Z,79.01
2019-01-27T10:43:50.014Z,78.97
2019-01-27T10:44:49.989Z,78.97
2019-01-27T10:45:49.964Z,78.35
2019-01-27T10:46:50.025Z,78.97
2019-01-27T10:47:49.962Z,78.05
2019-01-27T10:48:49.975Z,77.84
2019-01-27T10:49:49.931Z,77.77
2019-01-27T10:50:49.930Z,77.84
2019-01-27T10:51:49.904Z,78.14
2019-01-27T10:52:49.909Z,78.14
2019-01-27T10:53:49.893Z,77.84
2019-01-27T10:54:49.867Z,77.32
2019-01-27T10:55:49.859Z,77.73
2019-01-27T10:56:49.842Z,77.73
2019-01-27T10:57:49.840Z,77.32
2019-01-27T10:58:49.855Z,77.63
2019-01-27T10:59:49.813Z,77.73
2019-01-27T11:00:49.805Z,77.63
2019-01-27T11:01:49.829Z,77.28
2019-01-27T11:02:49.789Z,77.08
2019-01-27T11:03:49.789Z,77.11
2019-01-27T11:04:49.778Z,77.11
2019-01-27T11:05:49.745Z,76.81
2019-01-27T11:06:49.742Z,76.60
2019-01-27T11:07:49.733Z,76.70
2019-01-27T11:08:49.708Z,77.01
2019-01-27T11:09:49.724Z,76.39
2019-01-27T11:10:49.706Z,77.32
2019-01-27T11:11:49.677Z,77.11
2019-01-27T11:12:49.668Z,77.22
2019-01-27T11:13:49.666Z,77.42
2019-01-27T11:14:49.680Z,76.60
2019-01-27T11:15:49.658Z,76.50
2019-01-27T11:16:49.621Z,76.81
2019-01-27T11:17:49.626Z,77.08
2019-01-27T11:18:49.605Z,76.87
2019-01-27T11:19:49.612Z,77.08
2019-01-27T11:20:49.603Z,76.04
2019-01-27T11:21:49.571Z,76.77
2019-01-27T11:22:49.556Z,75.95
2019-01-27T11:23:49.607Z,76.67
2019-01-27T11:24:49.551Z,76.46
2019-01-27T11:25:49.550Z,76.15
2019-01-27T11:26:49.514Z,76.25
2019-01-27T11:27:49.506Z,76.15
2019-01-27T11:28:49.497Z,76.25
2019-01-27T11:29:49.479Z,75.95
2019-01-27T11:30:49.506Z,75.84
2019-01-27T11:31:49.464Z,75.22
2019-01-27T11:32:49.450Z,75.63
2019-01-27T11:33:49.447Z,76.04
2019-01-27T11:34:49.428Z,76.04
2019-01-27T11:35:49.418Z,76.25
2019-01-27T11:36:49.428Z,74.81
2019-01-27T11:37:49.395Z,74.60
2019-01-27T11:38:49.382Z,75.22
2019-01-27T11:39:49.367Z,75.53
2019-01-27T11:40:49.359Z,75.32
2019-01-27T11:41:49.363Z,75.09
2019-01-27T11:42:49.355Z,76.04
2019-01-27T11:43:49.323Z,74.98
2019-01-27T11:44:49.331Z,74.88
2019-01-27T11:45:49.327Z,75.22
2019-01-27T11:46:49.315Z,75.12
2019-01-27T11:47:49.290Z,75.12
2019-01-27T11:48:49.273Z,75.32
2019-01-27T11:49:49.307Z,75.22
2019-01-27T11:50:49.251Z,76.12
2019-01-27T11:51:49.254Z,74.77
2019-01-27T11:52:49.227Z,74.88
2019-01-27T11:53:49.240Z,74.15
2019-01-27T11:54:49.212Z,74.15
2019-01-27T11:55:49.197Z,74.33
2019-01-27T11:56:49.189Z,74.22
2019-01-27T11:57:49.201Z,74.02
2019-01-27T11:58:49.179Z,73.40
2019-01-27T11:59:49.150Z,74.08
2019-01-27T12:00:49.158Z,73.98
2019-01-27T12:01:49.131Z,73.98
2019-01-27T12:02:49.116Z,73.36
2019-01-27T12:03:49.125Z,73.36
2019-01-27T12:04:49.089Z,73.54
2019-01-27T12:05:49.084Z,73.26
2019-01-27T12:06:49.099Z,73.64
2019-01-27T12:07:49.064Z,72.85
2019-01-27T12:08:49.075Z,73.33
2019-01-27T12:09:49.040Z,72.71
2019-01-27T12:10:49.025Z,72.85
2019-01-27T12:11:49.015Z,73.23
2019-01-27T12:12:49.019Z,73.68
2019-01-27T12:13:49.049Z,72.92
2019-01-27T12:14:48.984Z,72.54
2019-01-27T12:15:48.995Z,73.26
2019-01-27T12:16:48.981Z,73.36
2019-01-27T12:17:48.949Z,73.88
2019-01-27T12:18:49.907Z,73.57
2019-01-27T12:19:48.961Z,73.88
2019-01-27T12:20:48.915Z,73.54
2019-01-27T12:21:48.906Z,73.68
2019-01-27T12:22:48.899Z,73.85
2019-01-27T12:23:48.888Z,73.68
2019-01-27T12:24:48.893Z,73.64
2019-01-27T12:25:48.897Z,73.33
2019-01-27T12:26:48.844Z,73.33
2019-01-27T12:27:48.837Z,73.54
2019-01-27T12:28:48.844Z,72.92
2019-01-27T12:29:48.821Z,72.81
2019-01-27T12:30:48.826Z,72.61
2019-01-27T12:31:48.796Z,72.61
2019-01-27T12:32:48.789Z,72.61
2019-01-27T12:33:48.774Z,72.85
2019-01-27T12:34:56.954Z,73.23
2019-01-27T12:35:48.766Z,72.61
2019-01-27T12:36:48.736Z,72.41
2019-01-27T12:37:48.726Z,72.81
2019-01-27T12:38:48.717Z,72.51
2019-01-27T12:39:48.705Z,72.61
2019-01-27T12:40:48.719Z,72.81
2019-01-27T12:41:48.681Z,72.20
2019-01-27T12:42:48.691Z,72.61
2019-01-27T12:43:48.682Z,72.81
2019-01-27T12:44:48.653Z,73.02
2019-01-27T12:45:48.647Z,73.02
2019-01-27T12:46:48.708Z,72.81
2019-01-27T12:47:48.648Z,73.02
2019-01-27T12:48:48.611Z,73.33
2019-01-27T12:49:48.591Z,72.92
2019-01-27T12:50:48.580Z,72.81
2019-01-27T12:51:48.588Z,72.61
2019-01-27T12:52:48.587Z,72.61